Time;durP1;ratioP1;P1;durP2;ratioP2;P2;SDS_P1;SDS_P2;PMS_P1;PMS_P2;Temp;Humidity;BMP_temperature;BMP_pressure;BME280_temperature;BME280_humidity;BME280_pressure;Samples;Min_cycle;Max_cycle;Signal;HPM_P1;HPM_P2
2023/07/01 00:01:15;;;;;;;17.52;14.07;;;;;;;;;;4992379;28;20042;-78
2023/07/01 00:03:41;;;;;;;21.17;15.20;;;;;;;;;;4994128;28;20092;-79
2023/07/01 00:06:07;;;;;;;17.17;15.43;;;;;;;;;;4993529;28;20065;-78
2023/07/01 00:08:33;;;;;;;17.23;14.30;;;;;;;;;;4999911;28;20046;-77
2023/07/01 00:11:00;;;;;;;21.52;17.33;;;;;;;;;;5008560;28;20057;-78
2023/07/01 00:13:27;;;;;;;22.27;15.88;;;;;;;;;;4993339;28;20058;-77
2023/07/01 00:15:55;;;;;;;21.42;16.02;;;;;;;;;;4993489;28;20042;-77
2023/07/01 00:18:21;;;;;;;20.00;17.77;;;;;;;;;;4993232;28;20034;-77
2023/07/01 00:20:47;;;;;;;17.70;15.52;;;;;;;;;;4993059;28;20042;-77
2023/07/01 00:23:13;;;;;;;24.75;16.88;;;;;;;;;;4993069;28;20408;-77
2023/07/01 00:25:40;;;;;;;18.08;16.02;;;;;;;;;;4991338;28;20540;-77
2023/07/01 00:28:06;;;;;;;17.42;15.77;;;;;;;;;;4991955;28;20433;-79
2023/07/01 00:30:32;;;;;;;18.15;15.88;;;;;;;;;;4991510;28;20041;-77
2023/07/01 00:32:59;;;;;;;18.25;16.10;;;;;;;;;;4991814;28;20030;-77
2023/07/01 00:35:26;;;;;;;20.95;15.32;;;;;;;;;;4992948;28;20038;-77
2023/07/01 00:37:51;;;;;;;19.58;14.93;;;;;;;;;;4992665;28;20069;-78
2023/07/01 00:40:18;;;;;;;17.27;15.48;;;;;;;;;;4992854;28;20046;-77
2023/07/01 00:42:46;;;;;;;18.90;15.93;;;;;;;;;;4992786;28;20561;-80
2023/07/01 00:45:12;;;;;;;22.55;15.80;;;;;;;;;;4992795;28;20086;-80
2023/07/01 00:47:39;;;;;;;16.88;15.23;;;;;;;;;;4991519;28;20069;-79
2023/07/01 00:50:06;;;;;;;17.50;15.80;;;;;;;;;;4992701;28;20077;-78
2023/07/01 00:52:32;;;;;;;18.65;16.23;;;;;;;;;;4992359;28;20400;-78
2023/07/01 00:54:58;;;;;;;16.75;15.30;;;;;;;;;;4991346;28;20125;-79
2023/07/01 00:57:24;;;;;;;16.17;14.63;;;;;;;;;;4992706;28;20049;-79
2023/07/01 00:59:50;;;;;;;16.35;14.65;;;;;;;;;;4992523;28;20044;-78
2023/07/01 01:02:20;;;;;;;13.32;12.13;;;;;;;;;;4992821;28;20049;-78
2023/07/01 01:05:01;;;;;;;16.25;14.68;;;;;;;;;;4991486;28;20136;-78
2023/07/01 01:07:36;;;;;;;16.92;14.57;;;;;;;;;;4997875;28;20053;-78
2023/07/01 01:10:03;;;;;;;14.27;12.95;;;;;;;;;;5003731;28;20112;-78
2023/07/01 01:12:29;;;;;;;14.43;12.93;;;;;;;;;;4985728;28;20475;-79
2023/07/01 01:14:55;;;;;;;15.48;13.90;;;;;;;;;;4992609;28;20085;-78
2023/07/01 01:17:24;;;;;;;15.10;13.65;;;;;;;;;;4991430;28;20536;-78
2023/07/01 01:19:55;;;;;;;15.93;14.38;;;;;;;;;;4990853;28;20038;-78
2023/07/01 01:22:22;;;;;;;15.48;13.95;;;;;;;;;;4991012;28;20037;-79
2023/07/01 01:24:52;;;;;;;15.43;13.75;;;;;;;;;;4974489;28;20547;-78
2023/07/01 01:27:19;;;;;;;17.57;13.83;;;;;;;;;;4990585;28;20054;-77
2023/07/01 01:29:45;;;;;;;21.15;12.82;;;;;;;;;;4974487;28;20300;-78
2023/07/01 01:32:12;;;;;;;14.00;12.68;;;;;;;;;;4991831;28;20090;-77
2023/07/01 01:34:38;;;;;;;15.05;12.80;;;;;;;;;;4990533;28;20069;-79
2023/07/01 01:37:05;;;;;;;14.00;12.80;;;;;;;;;;4991861;28;20034;-78
2023/07/01 01:39:31;;;;;;;12.95;11.77;;;;;;;;;;4990203;28;20034;-79
2023/07/01 01:42:03;;;;;;;12.90;11.68;;;;;;;;;;4991591;28;20040;-78
2023/07/01 01:44:35;;;;;;;12.90;11.50;;;;;;;;;;4990336;28;20069;-78
2023/07/01 01:47:03;;;;;;;11.68;10.65;;;;;;;;;;4990791;28;20057;-78
2023/07/01 01:49:29;;;;;;;13.02;11.75;;;;;;;;;;4990625;28;20034;-77
2023/07/01 01:51:55;;;;;;;11.75;10.60;;;;;;;;;;4990417;28;20543;-77
2023/07/01 01:54:21;;;;;;;13.30;12.00;;;;;;;;;;4974289;28;20584;-78
2023/07/01 01:56:47;;;;;;;13.25;12.02;;;;;;;;;;4974236;28;20165;-77
2023/07/01 01:59:13;;;;;;;12.05;11.13;;;;;;;;;;4957936;28;20034;-78
2023/07/01 02:01:39;;;;;;;12.32;11.32;;;;;;;;;;4991553;28;20414;-77
2023/07/01 02:04:05;;;;;;;13.30;11.68;;;;;;;;;;5005739;28;20107;-77
2023/07/01 02:06:32;;;;;;;12.88;10.98;;;;;;;;;;4990350;28;20050;-77
2023/07/01 02:08:58;;;;;;;12.52;11.57;;;;;;;;;;4989891;28;20034;-78
2023/07/01 02:11:24;;;;;;;11.40;10.27;;;;;;;;;;4990058;28;20171;-78
2023/07/01 02:13:50;;;;;;;12.27;10.68;;;;;;;;;;4989688;28;20044;-77
2023/07/01 02:16:16;;;;;;;11.68;10.77;;;;;;;;;;4990004;28;20043;-78
2023/07/01 02:18:42;;;;;;;12.02;10.75;;;;;;;;;;4990079;28;20042;-78
2023/07/01 02:21:08;;;;;;;11.77;10.80;;;;;;;;;;4991428;28;20516;-78
2023/07/01 02:23:34;;;;;;;11.18;10.27;;;;;;;;;;4990870;28;20030;-79
2023/07/01 02:26:01;;;;;;;9.80;9.00;;;;;;;;;;4991206;28;20042;-77
2023/07/01 02:28:27;;;;;;;10.05;9.32;;;;;;;;;;4989852;28;20124;-76
2023/07/01 02:30:54;;;;;;;11.40;9.68;;;;;;;;;;4990670;28;20042;-77
2023/07/01 02:33:20;;;;;;;10.68;9.65;;;;;;;;;;4989568;28;20045;-77
2023/07/01 02:35:46;;;;;;;9.95;9.10;;;;;;;;;;4989454;28;20042;-77
2023/07/01 02:38:11;;;;;;;10.82;8.68;;;;;;;;;;4991077;28;20497;-77
2023/07/01 02:40:38;;;;;;;10.52;9.73;;;;;;;;;;4990660;28;20038;-78
2023/07/01 02:43:05;;;;;;;8.93;8.13;;;;;;;;;;4991273;28;20030;-78
2023/07/01 02:45:32;;;;;;;9.25;8.57;;;;;;;;;;4989661;28;20053;-78
2023/07/01 02:47:58;;;;;;;10.38;9.07;;;;;;;;;;4989657;28;20038;-78
2023/07/01 02:50:24;;;;;;;8.80;8.10;;;;;;;;;;4989504;28;20050;-77
2023/07/01 02:52:50;;;;;;;9.43;8.73;;;;;;;;;;4989553;28;20045;-77
2023/07/01 02:55:16;;;;;;;9.25;8.45;;;;;;;;;;4989621;28;20042;-78
2023/07/01 02:57:42;;;;;;;7.93;7.22;;;;;;;;;;4990730;28;20580;-78
2023/07/01 03:00:10;;;;;;;8.40;7.80;;;;;;;;;;4990107;28;20059;-78
2023/07/01 03:02:37;;;;;;;13.85;9.15;;;;;;;;;;4993046;28;20497;-78
2023/07/01 03:05:04;;;;;;;11.10;8.10;;;;;;;;;;4994002;28;20390;-77
2023/07/01 03:07:30;;;;;;;9.25;8.48;;;;;;;;;;4994900;28;20062;-77
2023/07/01 03:09:56;;;;;;;6.85;6.35;;;;;;;;;;4996112;28;20034;-78
2023/07/01 03:12:22;;;;;;;8.38;7.80;;;;;;;;;;4998140;28;20046;-78
2023/07/01 03:14:48;;;;;;;8.70;7.88;;;;;;;;;;4997801;28;20118;-77
2023/07/01 03:17:15;;;;;;;8.98;8.32;;;;;;;;;;5000356;28;20041;-78
2023/07/01 03:19:41;;;;;;;9.10;8.30;;;;;;;;;;4999505;28;20030;-78
2023/07/01 03:22:07;;;;;;;7.38;6.68;;;;;;;;;;4983292;28;20038;-76
2023/07/01 03:24:34;;;;;;;8.73;8.13;;;;;;;;;;5000140;28;20063;-76
2023/07/01 03:27:01;;;;;;;8.88;8.18;;;;;;;;;;4998578;28;20050;-78
2023/07/01 03:29:27;;;;;;;6.07;5.68;;;;;;;;;;4996457;28;20034;-77
2023/07/01 03:31:53;;;;;;;9.45;8.55;;;;;;;;;;4994662;28;20035;-78
2023/07/01 03:34:22;;;;;;;7.13;6.63;;;;;;;;;;4994747;28;20061;-78
2023/07/01 03:36:47;;;;;;;8.27;7.57;;;;;;;;;;4994280;28;20062;-77
2023/07/01 03:39:16;;;;;;;6.38;5.93;;;;;;;;;;4994369;28;20073;-77
2023/07/01 03:41:42;;;;;;;10.65;8.82;;;;;;;;;;4993109;28;20034;-77
2023/07/01 03:44:08;;;;;;;7.43;6.90;;;;;;;;;;4994474;28;20182;-78
2023/07/01 03:46:34;;;;;;;9.70;7.00;;;;;;;;;;4994363;28;20094;-77
2023/07/01 03:49:00;;;;;;;8.50;7.75;;;;;;;;;;4994304;28;20126;-78
2023/07/01 03:51:26;;;;;;;7.95;7.30;;;;;;;;;;4994049;28;20137;-77
2023/07/01 03:53:52;;;;;;;8.75;7.93;;;;;;;;;;4992450;28;20039;-77
2023/07/01 03:56:18;;;;;;;7.45;6.85;;;;;;;;;;5003376;28;20045;-78
2023/07/01 03:58:44;;;;;;;8.25;7.65;;;;;;;;;;4995672;28;20413;-77
2023/07/01 04:01:10;;;;;;;8.45;7.85;;;;;;;;;;4993809;28;20173;-76
2023/07/01 04:03:36;;;;;;;8.05;7.45;;;;;;;;;;4992455;28;20117;-78
2023/07/01 04:06:02;;;;;;;6.35;5.85;;;;;;;;;;4992472;28;20042;-78
2023/07/01 04:08:29;;;;;;;11.73;8.35;;;;;;;;;;4993429;28;20049;-77
2023/07/01 04:10:55;;;;;;;8.57;7.95;;;;;;;;;;4992042;28;20030;-78
2023/07/01 04:13:21;;;;;;;8.85;8.15;;;;;;;;;;4993628;28;20212;-79
2023/07/01 04:15:47;;;;;;;7.93;7.15;;;;;;;;;;4993428;28;20698;-79
2023/07/01 04:18:13;;;;;;;8.00;7.40;;;;;;;;;;4992938;28;20125;-78
2023/07/01 04:20:40;;;;;;;7.50;6.80;;;;;;;;;;4999838;28;20112;-78
2023/07/01 04:23:06;;;;;;;7.78;7.18;;;;;;;;;;5000942;28;20038;-78
2023/07/01 04:25:32;;;;;;;8.25;7.65;;;;;;;;;;4999172;28;20038;-78
2023/07/01 04:28:01;;;;;;;8.50;7.88;;;;;;;;;;4994202;28;20047;-77
2023/07/01 04:30:27;;;;;;;7.82;7.25;;;;;;;;;;4991987;28;20117;-76
2023/07/01 04:32:53;;;;;;;8.27;7.70;;;;;;;;;;4994723;28;20138;-77
2023/07/01 04:35:19;;;;;;;7.80;7.10;;;;;;;;;;4998841;28;20031;-78
2023/07/01 04:37:46;;;;;;;8.85;8.15;;;;;;;;;;4997911;28;20037;-78
2023/07/01 04:40:12;;;;;;;8.70;8.10;;;;;;;;;;4999401;28;20073;-77
2023/07/01 04:42:45;;;;;;;12.23;10.07;;;;;;;;;;4998246;28;20053;-77
2023/07/01 04:45:11;;;;;;;11.45;9.13;;;;;;;;;;4980478;28;20029;-78
2023/07/01 04:47:38;;;;;;;6.72;6.22;;;;;;;;;;4995559;28;20119;-78
2023/07/01 04:50:04;;;;;;;9.27;8.57;;;;;;;;;;4996845;28;20405;-78
2023/07/01 04:52:30;;;;;;;10.32;9.38;;;;;;;;;;4996195;28;20049;-77
2023/07/01 04:54:56;;;;;;;9.85;8.85;;;;;;;;;;4996080;28;20054;-81
2023/07/01 04:57:22;;;;;;;10.05;9.23;;;;;;;;;;4993798;28;20100;-78
2023/07/01 04:59:48;;;;;;;9.60;8.88;;;;;;;;;;4992100;28;20045;-77
2023/07/01 05:02:14;;;;;;;9.80;9.02;;;;;;;;;;4993151;28;20092;-78
2023/07/01 05:04:40;;;;;;;9.20;8.35;;;;;;;;;;4992571;28;20061;-78
2023/07/01 05:07:06;;;;;;;9.18;8.50;;;;;;;;;;4992048;28;20046;-79
2023/07/01 05:09:32;;;;;;;7.55;6.88;;;;;;;;;;4993073;28;20054;-78
2023/07/01 05:11:58;;;;;;;6.22;5.80;;;;;;;;;;4991402;28;20100;-79
2023/07/01 05:14:24;;;;;;;4.88;4.57;;;;;;;;;;4992677;28;20042;-80
2023/07/01 05:16:50;;;;;;;5.15;4.75;;;;;;;;;;4991297;28;20037;-80
2023/07/01 05:19:16;;;;;;;8.25;4.28;;;;;;;;;;4991383;28;20457;-80
2023/07/01 05:21:49;;;;;;;5.65;4.93;;;;;;;;;;4992289;28;20042;-79
2023/07/01 05:24:15;;;;;;;6.00;5.50;;;;;;;;;;4992288;28;20034;-80
2023/07/01 05:26:44;;;;;;;5.28;4.88;;;;;;;;;;4991019;28;20074;-79
2023/07/01 05:29:10;;;;;;;5.30;4.95;;;;;;;;;;4992114;28;20412;-80
2023/07/01 05:31:36;;;;;;;6.22;5.68;;;;;;;;;;4992238;28;20133;-78
2023/07/01 05:34:03;;;;;;;9.90;5.55;;;;;;;;;;4990443;28;20068;-79
2023/07/01 05:36:29;;;;;;;5.88;5.47;;;;;;;;;;4992143;28;20625;-79
2023/07/01 05:38:56;;;;;;;4.55;4.35;;;;;;;;;;4991816;28;20176;-78
2023/07/01 05:41:22;;;;;;;6.15;5.55;;;;;;;;;;4991014;28;20034;-78
2023/07/01 05:43:49;;;;;;;6.38;5.45;;;;;;;;;;4991696;28;20034;-78
2023/07/01 05:46:15;;;;;;;5.55;5.10;;;;;;;;;;4978414;28;20050;-78
2023/07/01 05:48:41;;;;;;;4.75;4.45;;;;;;;;;;5002750;28;20043;-79
2023/07/01 05:51:07;;;;;;;7.07;4.85;;;;;;;;;;4991801;28;20060;-78
2023/07/01 05:53:33;;;;;;;4.85;4.38;;;;;;;;;;4991766;28;20117;-78
2023/07/01 05:55:59;;;;;;;4.13;3.92;;;;;;;;;;4991234;28;20078;-79
2023/07/01 05:58:25;;;;;;;5.90;5.10;;;;;;;;;;4991402;28;20493;-79
2023/07/01 06:00:51;;;;;;;5.60;5.10;;;;;;;;;;4991107;28;20038;-79
2023/07/01 06:03:16;;;;;;;6.03;5.53;;;;;;;;;;4991400;28;20101;-79
2023/07/01 06:05:43;;;;;;;4.13;3.83;;;;;;;;;;4991348;28;20042;-79
2023/07/01 06:08:09;;;;;;;5.00;4.70;;;;;;;;;;4991309;28;20038;-79
2023/07/01 06:10:35;;;;;;;5.32;4.97;;;;;;;;;;4991337;28;20084;-80
2023/07/01 06:13:01;;;;;;;8.27;4.32;;;;;;;;;;4991001;28;20042;-80
2023/07/01 06:15:27;;;;;;;5.68;5.18;;;;;;;;;;4991243;28;20045;-79
2023/07/01 06:17:53;;;;;;;5.15;4.82;;;;;;;;;;4989847;28;20046;-79
2023/07/01 06:20:19;;;;;;;4.80;4.50;;;;;;;;;;4990139;28;20520;-78
2023/07/01 06:22:45;;;;;;;5.60;5.00;;;;;;;;;;4989533;28;20034;-79
2023/07/01 06:25:11;;;;;;;5.50;5.10;;;;;;;;;;4990948;28;20520;-79
2023/07/01 06:27:37;;;;;;;5.43;5.03;;;;;;;;;;4990733;28;20054;-79
2023/07/01 06:30:03;;;;;;;4.20;3.90;;;;;;;;;;4973363;28;20053;-79
2023/07/01 06:32:31;;;;;;;6.68;4.82;;;;;;;;;;4991071;28;20133;-78
2023/07/01 06:34:57;;;;;;;5.50;4.97;;;;;;;;;;4973300;28;20034;-79
2023/07/01 06:37:23;;;;;;;6.32;5.00;;;;;;;;;;4991081;28;20034;-79
2023/07/01 06:39:49;;;;;;;5.18;4.63;;;;;;;;;;4990700;28;20120;-79
2023/07/01 06:42:16;;;;;;;5.40;4.90;;;;;;;;;;4990901;28;20036;-79
2023/07/01 06:44:42;;;;;;;6.20;4.15;;;;;;;;;;4988660;28;20038;-80
2023/07/01 06:47:08;;;;;;;6.47;4.60;;;;;;;;;;4989485;28;20531;-79
2023/07/01 06:49:34;;;;;;;4.82;4.43;;;;;;;;;;4973121;28;20034;-79
2023/07/01 06:52:01;;;;;;;5.38;4.35;;;;;;;;;;4990693;28;20562;-78
2023/07/01 06:54:27;;;;;;;5.97;4.47;;;;;;;;;;4990705;28;20038;-79
2023/07/01 06:56:53;;;;;;;4.78;4.47;;;;;;;;;;4989363;28;20049;-78
2023/07/01 06:59:20;;;;;;;4.22;4.03;;;;;;;;;;4991434;28;20038;-79
2023/07/01 07:01:46;;;;;;;4.25;3.85;;;;;;;;;;4990862;28;20527;-80
2023/07/01 07:04:12;;;;;;;7.05;4.47;;;;;;;;;;4990464;28;20042;-80
2023/07/01 07:06:38;;;;;;;6.47;4.63;;;;;;;;;;4989437;28;20042;-80
2023/07/01 07:09:04;;;;;;;3.45;3.25;;;;;;;;;;4990705;28;20446;-81
2023/07/01 07:11:30;;;;;;;4.13;3.83;;;;;;;;;;4989452;28;20034;-79
2023/07/01 07:13:57;;;;;;;4.38;2.58;;;;;;;;;;4989127;28;20097;-79
2023/07/01 07:16:23;;;;;;;4.10;3.90;;;;;;;;;;4989508;28;20034;-77
2023/07/01 07:18:49;;;;;;;9.00;4.20;;;;;;;;;;4990446;28;20043;-79
2023/07/01 07:21:15;;;;;;;4.55;4.15;;;;;;;;;;4991014;28;20061;-78
2023/07/01 07:23:41;;;;;;;7.18;2.88;;;;;;;;;;4990765;28;20101;-79
2023/07/01 07:26:07;;;;;;;3.67;3.28;;;;;;;;;;4958102;28;20476;-79
2023/07/01 07:28:34;;;;;;;3.78;3.47;;;;;;;;;;4991608;28;20113;-80
2023/07/01 07:31:01;;;;;;;8.13;4.22;;;;;;;;;;4995440;28;20412;-79
2023/07/01 07:33:27;;;;;;;3.42;3.22;;;;;;;;;;5001583;28;20062;-79
2023/07/01 07:35:53;;;;;;;4.30;3.90;;;;;;;;;;4998604;28;20038;-82
2023/07/01 07:38:19;;;;;;;4.40;4.20;;;;;;;;;;5002601;28;20031;-79
2023/07/01 07:40:45;;;;;;;5.28;4.18;;;;;;;;;;5003864;28;20069;-79
2023/07/01 07:43:11;;;;;;;4.85;4.18;;;;;;;;;;4991696;28;20394;-79
2023/07/01 07:45:37;;;;;;;3.63;3.33;;;;;;;;;;4990659;28;20092;-79
2023/07/01 07:48:03;;;;;;;8.35;4.50;;;;;;;;;;4990181;28;20121;-79
2023/07/01 07:50:29;;;;;;;5.07;4.60;;;;;;;;;;4990136;28;20085;-80
2023/07/01 07:52:56;;;;;;;5.07;4.65;;;;;;;;;;4972840;28;20038;-79
2023/07/01 07:55:21;;;;;;;10.38;4.95;;;;;;;;;;4990341;28;20030;-79
2023/07/01 07:57:48;;;;;;;5.07;4.22;;;;;;;;;;4993644;28;20498;-80
2023/07/01 08:00:14;;;;;;;4.90;4.13;;;;;;;;;;4992240;28;20497;-79
2023/07/01 08:02:44;;;;;;;3.90;3.60;;;;;;;;;;4994051;28;20078;-79
2023/07/01 08:05:17;;;;;;;5.18;4.45;;;;;;;;;;4992345;28;20034;-79
2023/07/01 08:07:45;;;;;;;3.08;2.88;;;;;;;;;;4993557;28;20046;-79
2023/07/01 08:10:11;;;;;;;4.78;3.70;;;;;;;;;;4992121;28;20030;-78
2023/07/01 08:12:37;;;;;;;4.85;3.88;;;;;;;;;;4994160;28;20049;-78
2023/07/01 08:15:03;;;;;;;4.35;3.58;;;;;;;;;;4993621;28;20030;-78
2023/07/01 08:17:31;;;;;;;6.93;4.00;;;;;;;;;;4993730;28;20046;-77
2023/07/01 08:19:58;;;;;;;3.90;3.53;;;;;;;;;;4993048;28;20417;-79
2023/07/01 08:22:25;;;;;;;3.75;3.55;;;;;;;;;;4993754;28;20387;-80
2023/07/01 08:24:51;;;;;;;4.65;4.05;;;;;;;;;;4993413;28;20038;-79
2023/07/01 08:27:17;;;;;;;4.40;4.03;;;;;;;;;;4993849;28;20137;-79
2023/07/01 08:29:43;;;;;;;3.67;3.38;;;;;;;;;;4993020;28;20088;-79
2023/07/01 08:32:10;;;;;;;5.20;3.50;;;;;;;;;;4993593;28;20053;-79
2023/07/01 08:34:36;;;;;;;3.97;3.60;;;;;;;;;;4993238;28;20031;-80
2023/07/01 08:37:02;;;;;;;3.95;3.40;;;;;;;;;;4993845;28;20046;-79
2023/07/01 08:39:28;;;;;;;5.30;3.72;;;;;;;;;;4995438;28;20089;-80
2023/07/01 08:41:59;;;;;;;8.55;4.15;;;;;;;;;;4992760;28;20038;-80
2023/07/01 08:44:25;;;;;;;6.30;3.95;;;;;;;;;;4991837;28;20057;-79
2023/07/01 08:46:52;;;;;;;7.60;4.20;;;;;;;;;;4992732;28;20053;-78
2023/07/01 08:49:19;;;;;;;7.10;4.15;;;;;;;;;;4992566;28;20035;-79
2023/07/01 08:51:45;;;;;;;5.32;3.85;;;;;;;;;;4992626;28;20112;-80
2023/07/01 08:54:12;;;;;;;5.97;3.60;;;;;;;;;;4992660;28;20034;-78
2023/07/01 08:56:38;;;;;;;3.60;3.35;;;;;;;;;;4991493;28;20038;-80
2023/07/01 08:59:04;;;;;;;6.78;4.30;;;;;;;;;;4992381;28;20033;-79
2023/07/01 09:01:30;;;;;;;5.68;4.13;;;;;;;;;;4991773;28;20042;-78
2023/07/01 09:03:56;;;;;;;6.35;4.50;;;;;;;;;;4992253;28;20133;-80
2023/07/01 09:06:23;;;;;;;8.27;4.40;;;;;;;;;;4975194;28;20121;-79
2023/07/01 09:08:49;;;;;;;4.55;4.20;;;;;;;;;;4990524;28;20042;-77
2023/07/01 09:11:15;;;;;;;4.85;4.32;;;;;;;;;;4992372;28;20539;-79
2023/07/01 09:13:41;;;;;;;6.68;4.47;;;;;;;;;;4991101;28;20439;-79
2023/07/01 09:16:08;;;;;;;8.02;3.85;;;;;;;;;;4992040;28;20038;-80
2023/07/01 09:18:34;;;;;;;3.42;3.22;;;;;;;;;;4992006;28;20030;-79
2023/07/01 09:21:00;;;;;;;4.38;3.67;;;;;;;;;;4990897;28;20061;-80
2023/07/01 09:23:27;;;;;;;3.88;3.58;;;;;;;;;;4992449;28;20031;-77
2023/07/01 09:26:08;;;;;;;4.45;4.10;;;;;;;;;;4992108;28;20053;-81
2023/07/01 09:28:35;;;;;;;6.70;4.05;;;;;;;;;;5003225;28;20034;-79
2023/07/01 09:31:01;;;;;;;6.38;3.80;;;;;;;;;;4994720;28;20491;-79
2023/07/01 09:33:27;;;;;;;3.00;2.80;;;;;;;;;;4992630;28;20030;-80
2023/07/01 09:35:57;;;;;;;4.50;4.20;;;;;;;;;;4990676;28;20031;-79
2023/07/01 09:38:24;;;;;;;5.18;4.35;;;;;;;;;;4992041;28;20125;-79
2023/07/01 09:40:50;;;;;;;5.00;4.57;;;;;;;;;;4991763;28;20041;-79
2023/07/01 09:43:18;;;;;;;4.90;4.57;;;;;;;;;;4990472;28;20044;-80
2023/07/01 09:45:52;;;;;;;5.43;4.90;;;;;;;;;;4990458;28;20405;-80
2023/07/01 09:48:18;;;;;;;9.73;5.50;;;;;;;;;;4991758;28;20584;-79
2023/07/01 09:50:44;;;;;;;7.20;5.28;;;;;;;;;;4991520;28;20517;-79
2023/07/01 09:53:20;;;;;;;8.45;4.15;;;;;;;;;;4991653;28;20641;-79
2023/07/01 09:55:47;;;;;;;4.07;3.78;;;;;;;;;;4991524;28;20501;-80
2023/07/01 09:58:13;;;;;;;5.18;4.78;;;;;;;;;;4990438;28;20098;-80
2023/07/01 10:00:39;;;;;;;5.00;4.60;;;;;;;;;;4990222;28;20041;-79
2023/07/01 10:03:07;;;;;;;11.38;5.20;;;;;;;;;;4990071;28;20116;-79
2023/07/01 10:05:36;;;;;;;4.80;4.35;;;;;;;;;;4989992;28;20058;-79
2023/07/01 10:08:02;;;;;;;5.70;5.03;;;;;;;;;;4990352;28;20272;-79
2023/07/01 10:10:28;;;;;;;5.60;5.13;;;;;;;;;;4989953;28;20533;-80
2023/07/01 10:12:54;;;;;;;5.60;4.43;;;;;;;;;;4991435;28;20041;-79
2023/07/01 10:15:23;;;;;;;4.50;4.20;;;;;;;;;;4991124;28;20038;-78
2023/07/01 10:17:51;;;;;;;5.72;5.20;;;;;;;;;;4974165;28;20204;-78
2023/07/01 10:20:30;;;;;;;5.25;4.75;;;;;;;;;;4990379;28;20027;-78
2023/07/01 10:22:57;;;;;;;6.35;5.05;;;;;;;;;;4991952;28;20039;-80
2023/07/01 10:25:41;;;;;;;5.38;4.97;;;;;;;;;;4991830;28;20036;-81
2023/07/01 10:28:07;;;;;;;6.07;5.20;;;;;;;;;;4991766;28;20049;-80
2023/07/01 10:30:43;;;;;;;6.72;5.20;;;;;;;;;;4993910;28;20030;-79
2023/07/01 10:33:35;;;;;;;5.97;5.40;;;;;;;;;;5002730;28;20061;-80
2023/07/01 10:36:11;;;;;;;4.43;4.13;;;;;;;;;;4999655;28;20032;-79
2023/07/01 10:38:37;;;;;;;5.60;5.05;;;;;;;;;;4974434;28;20037;-80
2023/07/01 10:41:03;;;;;;;5.40;4.90;;;;;;;;;;4990028;28;20034;-81
2023/07/01 10:43:36;;;;;;;5.60;5.05;;;;;;;;;;4991188;28;20475;-80
2023/07/01 10:46:10;;;;;;;4.65;4.35;;;;;;;;;;4990538;28;20042;-79
2023/07/01 10:48:37;;;;;;;5.07;4.68;;;;;;;;;;4990977;28;20409;-80
2023/07/01 10:51:03;;;;;;;5.15;4.75;;;;;;;;;;4990560;28;20112;-80
2023/07/01 10:53:30;;;;;;;5.57;4.53;;;;;;;;;;4990989;28;20034;-79
2023/07/01 10:56:10;;;;;;;5.97;5.32;;;;;;;;;;4989370;28;20046;-79
2023/07/01 10:58:36;;;;;;;7.50;5.00;;;;;;;;;;4973715;28;20113;-80
2023/07/01 11:01:03;;;;;;;7.20;5.03;;;;;;;;;;4989385;28;20134;-79
2023/07/01 11:03:35;;;;;;;7.03;5.07;;;;;;;;;;4990650;28;20043;-80
2023/07/01 11:06:06;;;;;;;4.13;3.83;;;;;;;;;;4990626;28;20057;-80
2023/07/01 11:09:04;;;;;;;5.05;4.75;;;;;;;;;;4990949;28;20037;-79
2023/07/01 11:11:32;;;;;;;4.45;4.15;;;;;;;;;;4931939;28;20153;-80
2023/07/01 11:13:59;;;;;;;4.55;4.03;;;;;;;;;;4991023;28;20113;-80
2023/07/01 11:16:25;;;;;;;5.00;4.60;;;;;;;;;;4992416;28;20050;-79
2023/07/01 11:18:51;;;;;;;5.07;4.50;;;;;;;;;;4984243;28;20038;-79
2023/07/01 11:21:18;;;;;;;5.13;4.72;;;;;;;;;;4990700;28;20108;-80
2023/07/01 11:23:54;;;;;;;6.53;3.90;;;;;;;;;;4989469;28;20453;-80
2023/07/01 11:26:21;;;;;;;8.63;5.53;;;;;;;;;;4989458;28;20053;-80
2023/07/01 11:28:49;;;;;;;5.88;5.38;;;;;;;;;;4974316;28;20101;-79
2023/07/01 11:31:18;;;;;;;5.75;5.35;;;;;;;;;;4990175;28;20042;-79
2023/07/01 11:33:45;;;;;;;5.73;4.93;;;;;;;;;;4993245;28;20034;-80
2023/07/01 11:36:14;;;;;;;5.07;4.68;;;;;;;;;;4992765;28;20287;-79
2023/07/01 11:38:45;;;;;;;5.53;5.13;;;;;;;;;;4994276;28;20038;-80
2023/07/01 11:41:17;;;;;;;5.00;4.55;;;;;;;;;;4993779;28;20057;-78
2023/07/01 11:43:43;;;;;;;5.03;4.72;;;;;;;;;;4994304;28;20108;-79
2023/07/01 11:46:10;;;;;;;5.30;4.90;;;;;;;;;;4993777;28;20042;-80
2023/07/01 11:48:36;;;;;;;5.97;5.57;;;;;;;;;;4993453;28;20042;-79
2023/07/01 11:51:02;;;;;;;5.50;5.10;;;;;;;;;;4992366;28;20093;-79
2023/07/01 11:53:29;;;;;;;5.95;5.15;;;;;;;;;;4992789;28;20049;-80
2023/07/01 11:55:58;;;;;;;5.93;5.38;;;;;;;;;;4993960;28;20123;-79
2023/07/01 11:58:28;;;;;;;4.53;4.13;;;;;;;;;;4992456;28;20488;-82
2023/07/01 12:00:54;;;;;;;5.15;3.60;;;;;;;;;;4993572;28;20042;-79
2023/07/01 12:03:20;;;;;;;3.25;3.05;;;;;;;;;;4993468;28;20046;-80
2023/07/01 12:05:46;;;;;;;5.85;3.88;;;;;;;;;;4993692;28;20038;-80
2023/07/01 12:08:12;;;;;;;4.63;4.30;;;;;;;;;;4993588;28;20053;-79
2023/07/01 12:10:39;;;;;;;3.88;3.58;;;;;;;;;;4993582;28;20066;-80
2023/07/01 12:13:05;;;;;;;4.80;4.30;;;;;;;;;;4992242;28;20402;-79
2023/07/01 12:15:33;;;;;;;5.07;3.85;;;;;;;;;;4993658;28;20045;-79
2023/07/01 12:18:17;;;;;;;5.90;4.20;;;;;;;;;;4992389;28;20042;-80
2023/07/01 12:20:44;;;;;;;3.90;3.50;;;;;;;;;;4993677;28;20048;-80
2023/07/01 12:23:10;;;;;;;5.22;4.22;;;;;;;;;;4993437;28;20537;-80
2023/07/01 12:25:36;;;;;;;4.00;3.80;;;;;;;;;;4992165;28;20054;-79
2023/07/01 12:28:04;;;;;;;3.75;3.42;;;;;;;;;;4993398;28;20077;-80
2023/07/01 12:30:30;;;;;;;3.90;3.70;;;;;;;;;;4993098;28;20041;-77
2023/07/01 12:32:56;;;;;;;3.83;3.60;;;;;;;;;;4992169;28;20529;-80
2023/07/01 12:35:22;;;;;;;4.28;3.97;;;;;;;;;;4991647;28;20464;-80
2023/07/01 12:37:48;;;;;;;7.05;4.40;;;;;;;;;;4991896;28;20120;-79
2023/07/01 12:40:15;;;;;;;4.15;3.85;;;;;;;;;;4992759;28;20533;-78
2023/07/01 12:42:41;;;;;;;3.90;3.60;;;;;;;;;;4991942;28;20045;-78
2023/07/01 12:45:08;;;;;;;5.03;4.10;;;;;;;;;;4993079;28;20122;-79
2023/07/01 12:47:34;;;;;;;4.80;4.50;;;;;;;;;;4975503;28;20038;-79
2023/07/01 12:50:00;;;;;;;4.85;4.38;;;;;;;;;;4992878;28;20128;-79
2023/07/01 12:52:26;;;;;;;3.05;2.85;;;;;;;;;;4993123;28;20042;-80
2023/07/01 12:54:52;;;;;;;5.47;4.97;;;;;;;;;;4991789;28;20034;-80
2023/07/01 12:57:20;;;;;;;4.43;4.03;;;;;;;;;;4991740;28;20141;-79
2023/07/01 12:59:46;;;;;;;5.18;4.68;;;;;;;;;;4992963;28;20034;-78
2023/07/01 13:02:13;;;;;;;4.72;4.43;;;;;;;;;;4992615;28;20039;-80
2023/07/01 13:04:39;;;;;;;5.07;4.35;;;;;;;;;;4993699;28;20358;-79
2023/07/01 13:07:05;;;;;;;6.55;4.93;;;;;;;;;;5006918;28;20500;-79
2023/07/01 13:09:42;;;;;;;4.57;4.18;;;;;;;;;;4992789;28;20615;-78
2023/07/01 13:12:09;;;;;;;5.93;4.28;;;;;;;;;;4992825;28;20073;-79
2023/07/01 13:14:35;;;;;;;4.60;4.35;;;;;;;;;;4993532;28;20030;-78
2023/07/01 13:17:00;;;;;;;6.07;5.47;;;;;;;;;;4993449;28;20446;-79
2023/07/01 13:19:27;;;;;;;6.78;5.88;;;;;;;;;;4992648;28;20041;-80
2023/07/01 13:21:53;;;;;;;10.18;5.55;;;;;;;;;;4992740;28;20173;-80
2023/07/01 13:24:19;;;;;;;6.32;5.18;;;;;;;;;;4993089;28;20102;-80
2023/07/01 13:26:45;;;;;;;5.75;5.25;;;;;;;;;;4996875;28;20196;-79
2023/07/01 13:29:18;;;;;;;6.53;5.30;;;;;;;;;;4986464;28;20162;-78
2023/07/01 13:31:44;;;;;;;5.85;5.45;;;;;;;;;;5001493;28;20034;-79
2023/07/01 13:34:10;;;;;;;8.98;5.30;;;;;;;;;;4992388;28;20034;-80
2023/07/01 13:36:36;;;;;;;6.07;5.53;;;;;;;;;;4992647;28;20030;-79
2023/07/01 13:39:03;;;;;;;6.57;4.78;;;;;;;;;;4993158;28;20085;-79
2023/07/01 13:41:29;;;;;;;4.45;4.15;;;;;;;;;;4992511;28;20038;-81
2023/07/01 13:44:01;;;;;;;5.35;4.95;;;;;;;;;;4991125;28;20504;-80
2023/07/01 13:46:45;;;;;;;5.15;4.65;;;;;;;;;;4974882;28;20141;-80
2023/07/01 13:49:10;;;;;;;5.70;4.50;;;;;;;;;;4991904;28;20085;-77
2023/07/01 13:51:37;;;;;;;4.50;4.10;;;;;;;;;;4990034;28;20050;-80
2023/07/01 13:54:03;;;;;;;4.65;4.20;;;;;;;;;;4974492;28;20084;-78
2023/07/01 13:56:29;;;;;;;5.28;4.80;;;;;;;;;;4990144;28;20512;-79
2023/07/01 13:58:56;;;;;;;4.82;4.53;;;;;;;;;;4974238;28;20085;-79
2023/07/01 14:01:21;;;;;;;5.28;4.78;;;;;;;;;;4991206;28;20038;-80
2023/07/01 14:03:47;;;;;;;4.20;3.92;;;;;;;;;;4990608;28;20410;-79
2023/07/01 14:06:14;;;;;;;5.25;4.78;;;;;;;;;;4991768;28;20053;-81
2023/07/01 14:08:40;;;;;;;5.47;5.07;;;;;;;;;;4992142;28;20045;-81
2023/07/01 14:11:07;;;;;;;8.15;5.68;;;;;;;;;;4991463;28;20419;-80
2023/07/01 14:13:33;;;;;;;6.90;4.63;;;;;;;;;;4973943;28;20061;-80
2023/07/01 14:15:58;;;;;;;5.53;5.13;;;;;;;;;;4991357;28;20502;-81
2023/07/01 14:18:25;;;;;;;5.43;5.03;;;;;;;;;;4991252;28;20049;-80
2023/07/01 14:20:58;;;;;;;5.80;5.05;;;;;;;;;;4974104;28;20178;-79
2023/07/01 14:23:34;;;;;;;5.95;5.35;;;;;;;;;;4991329;28;20038;-81
2023/07/01 14:26:00;;;;;;;5.47;5.07;;;;;;;;;;4991101;28;20030;-81
2023/07/01 14:28:26;;;;;;;10.95;5.40;;;;;;;;;;4990877;28;20636;-81
2023/07/01 14:30:52;;;;;;;6.22;5.15;;;;;;;;;;4990906;28;20157;-78
2023/07/01 14:33:18;;;;;;;6.40;5.63;;;;;;;;;;4989512;28;20042;-79
2023/07/01 14:35:47;;;;;;;5.80;5.32;;;;;;;;;;4990935;28;20031;-80
2023/07/01 14:38:15;;;;;;;4.95;4.45;;;;;;;;;;4990980;28;20030;-80